sensor_id;sensor_type;location;lat;lon;timestamp;P1;durP1;ratioP1;P2;durP2;ratioP2
4911;SDS011;2471;47.056;8.350;2023-12-14T00:01:13;9.73;;;6.88;;
4911;SDS011;2471;47.056;8.350;2023-12-14T00:03:40;6.57;;;5.97;;
4911;SDS011;2471;47.056;8.350;2023-12-14T00:06:07;8.60;;;6.40;;
4911;SDS011;2471;47.056;8.350;2023-12-14T00:08:33;6.47;;;5.88;;
4911;SDS011;2471;47.056;8.350;2023-12-14T00:11:09;7.85;;;6.57;;
4911;SDS011;2471;47.056;8.350;2023-12-14T00:13:35;7.30;;;6.60;;
4911;SDS011;2471;47.056;8.350;2023-12-14T00:16:02;6.75;;;6.15;;
4911;SDS011;2471;47.056;8.350;2023-12-14T00:18:28;7.30;;;6.60;;
4911;SDS011;2471;47.056;8.350;2023-12-14T00:20:54;8.63;;;7.50;;
4911;SDS011;2471;47.056;8.350;2023-12-14T00:23:21;8.65;;;7.75;;
4911;SDS011;2471;47.056;8.350;2023-12-14T00:25:47;9.05;;;8.15;;
4911;SDS011;2471;47.056;8.350;2023-12-14T00:28:13;9.70;;;8.50;;
4911;SDS011;2471;47.056;8.350;2023-12-14T00:30:39;11.40;;;8.70;;
4911;SDS011;2471;47.056;8.350;2023-12-14T00:33:05;9.25;;;8.35;;
4911;SDS011;2471;47.056;8.350;2023-12-14T00:35:31;46.83;;;29.58;;
4911;SDS011;2471;47.056;8.350;2023-12-14T00:37:57;35.30;;;23.45;;
4911;SDS011;2471;47.056;8.350;2023-12-14T00:40:23;10.10;;;9.10;;
4911;SDS011;2471;47.056;8.350;2023-12-14T00:42:50;8.75;;;7.85;;
4911;SDS011;2471;47.056;8.350;2023-12-14T00:45:16;8.75;;;7.95;;
4911;SDS011;2471;47.056;8.350;2023-12-14T00:47:42;11.77;;;8.70;;
4911;SDS011;2471;47.056;8.350;2023-12-14T00:50:08;10.85;;;9.00;;
4911;SDS011;2471;47.056;8.350;2023-12-14T00:52:34;11.98;;;9.38;;
4911;SDS011;2471;47.056;8.350;2023-12-14T00:55:00;9.80;;;8.70;;
4911;SDS011;2471;47.056;8.350;2023-12-14T00:57:26;10.90;;;9.00;;
4911;SDS011;2471;47.056;8.350;2023-12-14T00:59:52;10.85;;;9.13;;
4911;SDS011;2471;47.056;8.350;2023-12-14T01:02:18;9.82;;;8.85;;
4911;SDS011;2471;47.056;8.350;2023-12-14T01:04:44;10.65;;;9.00;;
4911;SDS011;2471;47.056;8.350;2023-12-14T01:07:10;13.02;;;8.60;;
4911;SDS011;2471;47.056;8.350;2023-12-14T01:09:36;9.90;;;8.90;;
4911;SDS011;2471;47.056;8.350;2023-12-14T01:12:02;10.23;;;9.07;;
4911;SDS011;2471;47.056;8.350;2023-12-14T01:14:28;11.10;;;8.70;;
4911;SDS011;2471;47.056;8.350;2023-12-14T01:16:54;9.20;;;8.30;;
4911;SDS011;2471;47.056;8.350;2023-12-14T01:19:20;9.93;;;8.52;;
4911;SDS011;2471;47.056;8.350;2023-12-14T01:21:46;9.05;;;8.15;;
4911;SDS011;2471;47.056;8.350;2023-12-14T01:24:12;8.68;;;7.78;;
4911;SDS011;2471;47.056;8.350;2023-12-14T01:26:39;9.77;;;8.77;;
4911;SDS011;2471;47.056;8.350;2023-12-14T01:29:05;9.13;;;8.13;;
4911;SDS011;2471;47.056;8.350;2023-12-14T01:31:31;8.90;;;7.80;;
4911;SDS011;2471;47.056;8.350;2023-12-14T01:33:57;8.60;;;7.75;;
4911;SDS011;2471;47.056;8.350;2023-12-14T01:36:23;11.98;;;8.10;;
4911;SDS011;2471;47.056;8.350;2023-12-14T01:38:50;9.45;;;7.90;;
4911;SDS011;2471;47.056;8.350;2023-12-14T01:41:16;9.30;;;8.30;;
4911;SDS011;2471;47.056;8.350;2023-12-14T01:43:42;9.23;;;7.70;;
4911;SDS011;2471;47.056;8.350;2023-12-14T01:46:08;8.55;;;7.68;;
4911;SDS011;2471;47.056;8.350;2023-12-14T01:48:35;8.07;;;7.28;;
4911;SDS011;2471;47.056;8.350;2023-12-14T01:51:01;9.40;;;7.60;;
4911;SDS011;2471;47.056;8.350;2023-12-14T01:53:27;8.43;;;7.60;;
4911;SDS011;2471;47.056;8.350;2023-12-14T01:55:53;10.60;;;7.47;;
4911;SDS011;2471;47.056;8.350;2023-12-14T01:58:19;8.35;;;7.53;;
4911;SDS011;2471;47.056;8.350;2023-12-14T02:00:50;9.65;;;7.90;;
4911;SDS011;2471;47.056;8.350;2023-12-14T02:03:18;14.70;;;10.07;;
4911;SDS011;2471;47.056;8.350;2023-12-14T02:05:44;10.87;;;8.70;;
4911;SDS011;2471;47.056;8.350;2023-12-14T02:08:10;6.40;;;5.80;;
4911;SDS011;2471;47.056;8.350;2023-12-14T02:10:36;6.70;;;6.00;;
4911;SDS011;2471;47.056;8.350;2023-12-14T02:13:02;8.68;;;6.13;;
4911;SDS011;2471;47.056;8.350;2023-12-14T02:15:28;7.60;;;6.55;;
4911;SDS011;2471;47.056;8.350;2023-12-14T02:17:54;5.95;;;5.35;;
4911;SDS011;2471;47.056;8.350;2023-12-14T02:20:20;6.65;;;5.55;;
4911;SDS011;2471;47.056;8.350;2023-12-14T02:22:55;7.45;;;6.00;;
4911;SDS011;2471;47.056;8.350;2023-12-14T02:25:22;6.55;;;5.53;;
4911;SDS011;2471;47.056;8.350;2023-12-14T02:27:48;6.35;;;5.78;;
4911;SDS011;2471;47.056;8.350;2023-12-14T02:30:15;5.90;;;5.40;;
4911;SDS011;2471;47.056;8.350;2023-12-14T02:32:41;5.82;;;5.30;;
4911;SDS011;2471;47.056;8.350;2023-12-14T02:35:08;6.15;;;5.55;;
4911;SDS011;2471;47.056;8.350;2023-12-14T02:37:34;6.30;;;5.43;;
4911;SDS011;2471;47.056;8.350;2023-12-14T02:40:05;5.57;;;5.07;;
4911;SDS011;2471;47.056;8.350;2023-12-14T02:42:31;8.25;;;5.50;;
4911;SDS011;2471;47.056;8.350;2023-12-14T02:44:57;5.85;;;5.25;;
4911;SDS011;2471;47.056;8.350;2023-12-14T02:47:23;6.43;;;5.32;;
4911;SDS011;2471;47.056;8.350;2023-12-14T02:49:49;5.53;;;5.03;;
4911;SDS011;2471;47.056;8.350;2023-12-14T02:52:15;5.57;;;4.43;;
4911;SDS011;2471;47.056;8.350;2023-12-14T02:54:41;4.80;;;4.30;;
4911;SDS011;2471;47.056;8.350;2023-12-14T02:57:07;4.40;;;4.10;;
4911;SDS011;2471;47.056;8.350;2023-12-14T02:59:33;4.30;;;3.90;;
4911;SDS011;2471;47.056;8.350;2023-12-14T03:01:59;4.63;;;4.10;;
4911;SDS011;2471;47.056;8.350;2023-12-14T03:04:25;4.30;;;3.70;;
4911;SDS011;2471;47.056;8.350;2023-12-14T03:06:52;3.55;;;3.25;;
4911;SDS011;2471;47.056;8.350;2023-12-14T03:09:19;4.40;;;4.00;;
4911;SDS011;2471;47.056;8.350;2023-12-14T03:11:45;5.63;;;3.40;;
4911;SDS011;2471;47.056;8.350;2023-12-14T03:14:11;4.00;;;3.70;;
4911;SDS011;2471;47.056;8.350;2023-12-14T03:16:37;4.10;;;3.80;;
4911;SDS011;2471;47.056;8.350;2023-12-14T03:19:03;3.70;;;3.50;;
4911;SDS011;2471;47.056;8.350;2023-12-14T03:21:29;3.95;;;3.70;;
4911;SDS011;2471;47.056;8.350;2023-12-14T03:23:55;3.80;;;3.50;;
4911;SDS011;2471;47.056;8.350;2023-12-14T03:26:21;4.20;;;3.80;;
4911;SDS011;2471;47.056;8.350;2023-12-14T03:28:47;4.20;;;3.80;;
4911;SDS011;2471;47.056;8.350;2023-12-14T03:31:14;4.15;;;3.85;;
4911;SDS011;2471;47.056;8.350;2023-12-14T03:33:40;5.00;;;4.60;;
4911;SDS011;2471;47.056;8.350;2023-12-14T03:36:06;7.28;;;4.80;;
4911;SDS011;2471;47.056;8.350;2023-12-14T03:38:33;4.90;;;4.40;;
4911;SDS011;2471;47.056;8.350;2023-12-14T03:40:59;5.30;;;4.80;;
4911;SDS011;2471;47.056;8.350;2023-12-14T03:43:26;6.20;;;4.83;;
4911;SDS011;2471;47.056;8.350;2023-12-14T03:45:52;5.40;;;4.90;;
4911;SDS011;2471;47.056;8.350;2023-12-14T03:48:18;4.57;;;4.28;;
4911;SDS011;2471;47.056;8.350;2023-12-14T03:50:44;5.15;;;4.78;;
4911;SDS011;2471;47.056;8.350;2023-12-14T03:53:10;6.75;;;4.82;;
4911;SDS011;2471;47.056;8.350;2023-12-14T03:55:36;5.20;;;4.70;;
4911;SDS011;2471;47.056;8.350;2023-12-14T03:58:02;4.90;;;4.50;;
4911;SDS011;2471;47.056;8.350;2023-12-14T04:00:28;5.25;;;4.78;;
4911;SDS011;2471;47.056;8.350;2023-12-14T04:02:54;5.68;;;5.18;;
4911;SDS011;2471;47.056;8.350;2023-12-14T04:05:20;5.20;;;4.63;;
4911;SDS011;2471;47.056;8.350;2023-12-14T04:07:46;5.28;;;4.88;;
4911;SDS011;2471;47.056;8.350;2023-12-14T04:10:12;5.43;;;4.93;;
4911;SDS011;2471;47.056;8.350;2023-12-14T04:12:39;5.60;;;4.77;;
4911;SDS011;2471;47.056;8.350;2023-12-14T04:15:06;5.30;;;4.80;;
4911;SDS011;2471;47.056;8.350;2023-12-14T04:17:32;5.70;;;5.10;;
4911;SDS011;2471;47.056;8.350;2023-12-14T04:19:58;6.43;;;5.82;;
4911;SDS011;2471;47.056;8.350;2023-12-14T04:22:25;5.70;;;5.20;;
4911;SDS011;2471;47.056;8.350;2023-12-14T04:24:51;5.37;;;4.97;;
4911;SDS011;2471;47.056;8.350;2023-12-14T04:27:18;6.30;;;5.70;;
4911;SDS011;2471;47.056;8.350;2023-12-14T04:29:44;6.15;;;5.55;;
4911;SDS011;2471;47.056;8.350;2023-12-14T04:32:10;6.18;;;4.93;;
4911;SDS011;2471;47.056;8.350;2023-12-14T04:34:36;5.82;;;5.32;;
4911;SDS011;2471;47.056;8.350;2023-12-14T04:37:02;6.28;;;5.68;;
4911;SDS011;2471;47.056;8.350;2023-12-14T04:39:28;6.55;;;5.70;;
4911;SDS011;2471;47.056;8.350;2023-12-14T04:41:54;5.80;;;5.20;;
4911;SDS011;2471;47.056;8.350;2023-12-14T04:44:20;6.50;;;5.90;;
4911;SDS011;2471;47.056;8.350;2023-12-14T04:46:49;6.45;;;5.85;;
4911;SDS011;2471;47.056;8.350;2023-12-14T04:49:15;7.00;;;6.28;;
4911;SDS011;2471;47.056;8.350;2023-12-14T04:51:44;6.82;;;6.13;;
4911;SDS011;2471;47.056;8.350;2023-12-14T04:54:10;6.88;;;6.18;;
4911;SDS011;2471;47.056;8.350;2023-12-14T04:56:36;7.40;;;6.70;;
4911;SDS011;2471;47.056;8.350;2023-12-14T04:59:02;8.23;;;7.43;;
4911;SDS011;2471;47.056;8.350;2023-12-14T05:01:28;6.50;;;5.90;;
4911;SDS011;2471;47.056;8.350;2023-12-14T05:03:54;7.60;;;6.13;;
4911;SDS011;2471;47.056;8.350;2023-12-14T05:06:20;6.13;;;5.63;;
4911;SDS011;2471;47.056;8.350;2023-12-14T05:08:47;7.20;;;6.50;;
4911;SDS011;2471;47.056;8.350;2023-12-14T05:11:13;6.80;;;6.20;;
4911;SDS011;2471;47.056;8.350;2023-12-14T05:13:39;7.25;;;6.13;;
4911;SDS011;2471;47.056;8.350;2023-12-14T05:16:05;7.82;;;6.70;;
4911;SDS011;2471;47.056;8.350;2023-12-14T05:18:31;7.70;;;6.90;;
4911;SDS011;2471;47.056;8.350;2023-12-14T05:20:57;8.18;;;7.38;;
4911;SDS011;2471;47.056;8.350;2023-12-14T05:23:23;9.88;;;7.88;;
4911;SDS011;2471;47.056;8.350;2023-12-14T05:25:49;8.25;;;7.40;;
4911;SDS011;2471;47.056;8.350;2023-12-14T05:28:15;7.75;;;7.05;;
4911;SDS011;2471;47.056;8.350;2023-12-14T05:30:41;8.60;;;7.70;;
4911;SDS011;2471;47.056;8.350;2023-12-14T05:33:08;8.75;;;7.80;;
4911;SDS011;2471;47.056;8.350;2023-12-14T05:35:34;8.15;;;7.35;;
4911;SDS011;2471;47.056;8.350;2023-12-14T05:38:00;12.45;;;7.50;;
4911;SDS011;2471;47.056;8.350;2023-12-14T05:40:25;8.00;;;7.20;;
4911;SDS011;2471;47.056;8.350;2023-12-14T05:42:51;8.30;;;7.50;;
4911;SDS011;2471;47.056;8.350;2023-12-14T05:45:17;7.90;;;7.00;;
4911;SDS011;2471;47.056;8.350;2023-12-14T05:47:44;10.00;;;7.80;;
4911;SDS011;2471;47.056;8.350;2023-12-14T05:50:10;9.02;;;8.13;;
4911;SDS011;2471;47.056;8.350;2023-12-14T05:52:37;9.45;;;8.30;;
4911;SDS011;2471;47.056;8.350;2023-12-14T05:55:04;10.05;;;8.20;;
4911;SDS011;2471;47.056;8.350;2023-12-14T05:57:30;9.25;;;8.20;;
4911;SDS011;2471;47.056;8.350;2023-12-14T05:59:56;10.85;;;8.90;;
4911;SDS011;2471;47.056;8.350;2023-12-14T06:02:22;8.88;;;7.90;;
4911;SDS011;2471;47.056;8.350;2023-12-14T06:04:48;9.90;;;7.90;;
4911;SDS011;2471;47.056;8.350;2023-12-14T06:07:14;7.75;;;6.93;;
4911;SDS011;2471;47.056;8.350;2023-12-14T06:09:41;9.63;;;8.50;;
4911;SDS011;2471;47.056;8.350;2023-12-14T06:12:06;10.60;;;9.10;;
4911;SDS011;2471;47.056;8.350;2023-12-14T06:14:32;10.00;;;9.00;;
4911;SDS011;2471;47.056;8.350;2023-12-14T06:16:58;9.80;;;8.80;;
4911;SDS011;2471;47.056;8.350;2023-12-14T06:19:24;9.30;;;8.30;;
4911;SDS011;2471;47.056;8.350;2023-12-14T06:21:50;10.20;;;8.40;;
4911;SDS011;2471;47.056;8.350;2023-12-14T06:24:17;12.70;;;9.32;;
4911;SDS011;2471;47.056;8.350;2023-12-14T06:26:43;12.27;;;10.52;;
4911;SDS011;2471;47.056;8.350;2023-12-14T06:29:10;12.77;;;10.02;;
4911;SDS011;2471;47.056;8.350;2023-12-14T06:31:36;11.27;;;9.27;;
4911;SDS011;2471;47.056;8.350;2023-12-14T06:34:03;10.43;;;8.95;;
4911;SDS011;2471;47.056;8.350;2023-12-14T06:36:32;7.03;;;6.32;;
4911;SDS011;2471;47.056;8.350;2023-12-14T06:38:59;6.47;;;5.70;;
4911;SDS011;2471;47.056;8.350;2023-12-14T06:41:25;6.05;;;5.32;;
4911;SDS011;2471;47.056;8.350;2023-12-14T06:43:51;7.40;;;6.60;;
4911;SDS011;2471;47.056;8.350;2023-12-14T06:46:18;5.43;;;4.93;;
4911;SDS011;2471;47.056;8.350;2023-12-14T06:48:44;5.30;;;4.80;;
4911;SDS011;2471;47.056;8.350;2023-12-14T06:51:11;6.75;;;6.15;;
4911;SDS011;2471;47.056;8.350;2023-12-14T06:53:39;6.60;;;4.60;;
4911;SDS011;2471;47.056;8.350;2023-12-14T06:56:05;5.00;;;4.53;;
4911;SDS011;2471;47.056;8.350;2023-12-14T06:58:34;3.90;;;3.60;;
4911;SDS011;2471;47.056;8.350;2023-12-14T07:01:00;2.90;;;2.80;;
4911;SDS011;2471;47.056;8.350;2023-12-14T07:03:26;3.03;;;2.78;;
4911;SDS011;2471;47.056;8.350;2023-12-14T07:05:52;3.65;;;3.40;;
4911;SDS011;2471;47.056;8.350;2023-12-14T07:08:18;3.13;;;2.93;;
4911;SDS011;2471;47.056;8.350;2023-12-14T07:10:44;6.33;;;5.70;;
4911;SDS011;2471;47.056;8.350;2023-12-14T07:13:10;6.20;;;5.60;;
4911;SDS011;2471;47.056;8.350;2023-12-14T07:15:36;6.93;;;5.53;;
4911;SDS011;2471;47.056;8.350;2023-12-14T07:18:02;5.70;;;5.10;;
4911;SDS011;2471;47.056;8.350;2023-12-14T07:20:28;5.10;;;4.20;;
4911;SDS011;2471;47.056;8.350;2023-12-14T07:22:54;4.88;;;4.30;;
4911;SDS011;2471;47.056;8.350;2023-12-14T07:25:20;4.90;;;4.47;;
4911;SDS011;2471;47.056;8.350;2023-12-14T07:27:46;5.90;;;4.70;;
4911;SDS011;2471;47.056;8.350;2023-12-14T07:30:13;6.40;;;4.95;;
4911;SDS011;2471;47.056;8.350;2023-12-14T07:32:39;5.17;;;4.70;;
4911;SDS011;2471;47.056;8.350;2023-12-14T07:35:05;4.38;;;4.07;;
4911;SDS011;2471;47.056;8.350;2023-12-14T07:37:31;3.75;;;3.50;;
4911;SDS011;2471;47.056;8.350;2023-12-14T07:39:57;3.50;;;3.20;;
4911;SDS011;2471;47.056;8.350;2023-12-14T07:42:23;4.30;;;3.47;;
4911;SDS011;2471;47.056;8.350;2023-12-14T07:44:49;4.50;;;4.10;;
4911;SDS011;2471;47.056;8.350;2023-12-14T07:47:15;4.00;;;3.70;;
4911;SDS011;2471;47.056;8.350;2023-12-14T07:49:42;4.97;;;4.57;;
4911;SDS011;2471;47.056;8.350;2023-12-14T07:52:08;4.60;;;4.20;;
4911;SDS011;2471;47.056;8.350;2023-12-14T07:54:34;4.00;;;3.60;;
4911;SDS011;2471;47.056;8.350;2023-12-14T07:57:01;4.23;;;3.40;;
4911;SDS011;2471;47.056;8.350;2023-12-14T07:59:27;4.00;;;3.70;;
4911;SDS011;2471;47.056;8.350;2023-12-14T08:01:54;4.47;;;3.97;;
4911;SDS011;2471;47.056;8.350;2023-12-14T08:04:20;5.32;;;4.70;;
4911;SDS011;2471;47.056;8.350;2023-12-14T08:06:46;4.60;;;4.20;;
4911;SDS011;2471;47.056;8.350;2023-12-14T08:09:12;4.93;;;4.53;;
4911;SDS011;2471;47.056;8.350;2023-12-14T08:11:38;5.10;;;4.60;;
4911;SDS011;2471;47.056;8.350;2023-12-14T08:14:04;6.03;;;4.28;;
4911;SDS011;2471;47.056;8.350;2023-12-14T08:16:30;5.00;;;4.55;;
4911;SDS011;2471;47.056;8.350;2023-12-14T08:18:56;5.97;;;5.30;;
4911;SDS011;2471;47.056;8.350;2023-12-14T08:21:23;6.22;;;5.25;;
4911;SDS011;2471;47.056;8.350;2023-12-14T08:23:49;6.53;;;5.10;;
4911;SDS011;2471;47.056;8.350;2023-12-14T08:26:15;6.90;;;4.57;;
4911;SDS011;2471;47.056;8.350;2023-12-14T08:28:41;4.97;;;4.57;;
4911;SDS011;2471;47.056;8.350;2023-12-14T08:31:08;7.72;;;5.38;;
4911;SDS011;2471;47.056;8.350;2023-12-14T08:33:35;7.07;;;5.47;;
4911;SDS011;2471;47.056;8.350;2023-12-14T08:36:02;5.10;;;4.60;;
4911;SDS011;2471;47.056;8.350;2023-12-14T08:38:28;4.35;;;3.95;;
4911;SDS011;2471;47.056;8.350;2023-12-14T08:40:54;3.80;;;3.50;;
4911;SDS011;2471;47.056;8.350;2023-12-14T08:43:20;3.90;;;3.60;;
4911;SDS011;2471;47.056;8.350;2023-12-14T08:45:46;4.85;;;4.40;;
4911;SDS011;2471;47.056;8.350;2023-12-14T08:48:13;4.18;;;3.78;;
4911;SDS011;2471;47.056;8.350;2023-12-14T08:50:39;4.50;;;4.20;;
4911;SDS011;2471;47.056;8.350;2023-12-14T08:53:05;5.10;;;4.20;;
4911;SDS011;2471;47.056;8.350;2023-12-14T08:55:33;4.70;;;4.30;;
4911;SDS011;2471;47.056;8.350;2023-12-14T08:57:59;4.57;;;4.22;;
4911;SDS011;2471;47.056;8.350;2023-12-14T09:00:25;5.22;;;4.72;;
4911;SDS011;2471;47.056;8.350;2023-12-14T09:02:51;7.38;;;5.10;;
4911;SDS011;2471;47.056;8.350;2023-12-14T09:05:17;6.43;;;5.25;;
4911;SDS011;2471;47.056;8.350;2023-12-14T09:07:45;3.70;;;3.40;;
4911;SDS011;2471;47.056;8.350;2023-12-14T09:10:11;3.90;;;3.50;;
4911;SDS011;2471;47.056;8.350;2023-12-14T09:12:37;3.65;;;3.25;;
4911;SDS011;2471;47.056;8.350;2023-12-14T09:15:04;4.10;;;3.70;;
4911;SDS011;2471;47.056;8.350;2023-12-14T09:17:30;4.35;;;3.95;;
4911;SDS011;2471;47.056;8.350;2023-12-14T09:20:00;4.20;;;3.70;;
4911;SDS011;2471;47.056;8.350;2023-12-14T09:22:26;3.30;;;3.10;;
4911;SDS011;2471;47.056;8.350;2023-12-14T09:24:52;3.40;;;3.20;;
4911;SDS011;2471;47.056;8.350;2023-12-14T09:27:18;3.00;;;2.80;;
4911;SDS011;2471;47.056;8.350;2023-12-14T09:29:44;4.00;;;3.70;;
4911;SDS011;2471;47.056;8.350;2023-12-14T09:32:10;3.63;;;3.33;;
4911;SDS011;2471;47.056;8.350;2023-12-14T09:34:36;2.60;;;2.10;;
4911;SDS011;2471;47.056;8.350;2023-12-14T09:37:02;3.40;;;3.10;;
4911;SDS011;2471;47.056;8.350;2023-12-14T09:39:28;3.03;;;2.83;;
4911;SDS011;2471;47.056;8.350;2023-12-14T09:42:06;6.70;;;4.45;;
4911;SDS011;2471;47.056;8.350;2023-12-14T09:44:33;2.93;;;2.73;;
4911;SDS011;2471;47.056;8.350;2023-12-14T09:47:00;3.00;;;2.80;;
4911;SDS011;2471;47.056;8.350;2023-12-14T09:49:27;3.50;;;3.20;;
4911;SDS011;2471;47.056;8.350;2023-12-14T09:51:55;7.05;;;5.95;;
4911;SDS011;2471;47.056;8.350;2023-12-14T09:54:21;7.55;;;4.90;;
4911;SDS011;2471;47.056;8.350;2023-12-14T09:56:47;3.37;;;2.73;;
4911;SDS011;2471;47.056;8.350;2023-12-14T09:59:14;3.45;;;3.15;;
4911;SDS011;2471;47.056;8.350;2023-12-14T10:01:40;5.68;;;3.65;;
4911;SDS011;2471;47.056;8.350;2023-12-14T10:06:32;2.40;;;2.30;;
4911;SDS011;2471;47.056;8.350;2023-12-14T10:08:58;4.03;;;2.90;;
4911;SDS011;2471;47.056;8.350;2023-12-14T10:11:24;2.90;;;2.70;;
4911;SDS011;2471;47.056;8.350;2023-12-14T10:13:50;3.50;;;2.40;;
4911;SDS011;2471;47.056;8.350;2023-12-14T10:16:29;2.90;;;2.70;;
4911;SDS011;2471;47.056;8.350;2023-12-14T10:18:56;3.00;;;2.80;;
4911;SDS011;2471;47.056;8.350;2023-12-14T10:21:24;2.90;;;2.42;;
4911;SDS011;2471;47.056;8.350;2023-12-14T10:23:50;2.97;;;2.75;;
4911;SDS011;2471;47.056;8.350;2023-12-14T10:26:16;2.30;;;2.20;;
4911;SDS011;2471;47.056;8.350;2023-12-14T10:28:42;3.20;;;2.90;;
4911;SDS011;2471;47.056;8.350;2023-12-14T10:31:08;3.58;;;2.80;;
4911;SDS011;2471;47.056;8.350;2023-12-14T10:33:35;2.80;;;2.60;;
4911;SDS011;2471;47.056;8.350;2023-12-14T10:36:01;3.53;;;2.80;;
4911;SDS011;2471;47.056;8.350;2023-12-14T10:38:27;2.80;;;2.58;;
4911;SDS011;2471;47.056;8.350;2023-12-14T10:40:54;2.90;;;2.70;;
4911;SDS011;2471;47.056;8.350;2023-12-14T10:43:21;2.80;;;2.40;;
4911;SDS011;2471;47.056;8.350;2023-12-14T10:45:47;2.75;;;2.00;;
4911;SDS011;2471;47.056;8.350;2023-12-14T10:48:13;2.70;;;2.33;;
4911;SDS011;2471;47.056;8.350;2023-12-14T10:50:39;2.80;;;2.28;;
4911;SDS011;2471;47.056;8.350;2023-12-14T10:53:08;2.22;;;2.00;;
4911;SDS011;2471;47.056;8.350;2023-12-14T10:55:38;2.30;;;2.10;;
4911;SDS011;2471;47.056;8.350;2023-12-14T10:58:07;2.20;;;2.10;;
4911;SDS011;2471;47.056;8.350;2023-12-14T11:00:33;2.30;;;2.20;;
4911;SDS011;2471;47.056;8.350;2023-12-14T11:02:59;2.05;;;1.85;;
4911;SDS011;2471;47.056;8.350;2023-12-14T11:05:26;2.50;;;2.30;;
4911;SDS011;2471;47.056;8.350;2023-12-14T11:07:56;2.03;;;1.92;;
4911;SDS011;2471;47.056;8.350;2023-12-14T11:10:27;2.40;;;2.20;;
4911;SDS011;2471;47.056;8.350;2023-12-14T11:15:24;2.00;;;1.52;;
4911;SDS011;2471;47.056;8.350;2023-12-14T11:20:54;2.35;;;2.13;;
4911;SDS011;2471;47.056;8.350;2023-12-14T11:25:50;1.92;;;1.83;;
4911;SDS011;2471;47.056;8.350;2023-12-14T11:28:17;1.70;;;1.60;;
4911;SDS011;2471;47.056;8.350;2023-12-14T11:30:43;1.85;;;1.65;;
4911;SDS011;2471;47.056;8.350;2023-12-14T11:33:10;2.10;;;1.60;;
4911;SDS011;2471;47.056;8.350;2023-12-14T11:35:36;1.70;;;1.60;;
4911;SDS011;2471;47.056;8.350;2023-12-14T11:38:02;3.20;;;1.63;;
4911;SDS011;2471;47.056;8.350;2023-12-14T11:40:35;1.38;;;1.27;;
4911;SDS011;2471;47.056;8.350;2023-12-14T11:43:04;1.40;;;1.30;;
4911;SDS011;2471;47.056;8.350;2023-12-14T11:45:38;1.48;;;1.30;;
4911;SDS011;2471;47.056;8.350;2023-12-14T11:48:04;2.10;;;1.30;;
4911;SDS011;2471;47.056;8.350;2023-12-14T11:50:34;1.60;;;1.50;;
4911;SDS011;2471;47.056;8.350;2023-12-14T11:53:00;3.00;;;1.40;;
4911;SDS011;2471;47.056;8.350;2023-12-14T11:55:28;1.60;;;1.50;;
4911;SDS011;2471;47.056;8.350;2023-12-14T11:57:55;1.83;;;1.73;;
4911;SDS011;2471;47.056;8.350;2023-12-14T12:00:28;2.20;;;2.10;;
4911;SDS011;2471;47.056;8.350;2023-12-14T12:03:13;2.05;;;1.95;;
4911;SDS011;2471;47.056;8.350;2023-12-14T12:05:40;2.33;;;2.20;;
4911;SDS011;2471;47.056;8.350;2023-12-14T12:08:07;1.80;;;1.70;;
4911;SDS011;2471;47.056;8.350;2023-12-14T12:10:33;5.47;;;1.90;;
4911;SDS011;2471;47.056;8.350;2023-12-14T12:13:01;1.77;;;1.50;;
4911;SDS011;2471;47.056;8.350;2023-12-14T12:15:27;1.67;;;1.50;;
4911;SDS011;2471;47.056;8.350;2023-12-14T12:17:53;1.80;;;1.70;;
4911;SDS011;2471;47.056;8.350;2023-12-14T12:20:19;2.00;;;1.90;;
4911;SDS011;2471;47.056;8.350;2023-12-14T12:22:45;2.00;;;1.80;;
4911;SDS011;2471;47.056;8.350;2023-12-14T12:25:10;2.55;;;1.80;;
4911;SDS011;2471;47.056;8.350;2023-12-14T12:27:36;1.67;;;1.58;;
4911;SDS011;2471;47.056;8.350;2023-12-14T12:30:03;1.58;;;1.48;;
4911;SDS011;2471;47.056;8.350;2023-12-14T12:32:29;1.70;;;1.58;;
4911;SDS011;2471;47.056;8.350;2023-12-14T12:34:55;1.70;;;1.60;;
4911;SDS011;2471;47.056;8.350;2023-12-14T12:37:21;1.80;;;1.70;;
4911;SDS011;2471;47.056;8.350;2023-12-14T12:39:47;1.80;;;1.70;;
4911;SDS011;2471;47.056;8.350;2023-12-14T12:42:14;1.60;;;1.50;;
4911;SDS011;2471;47.056;8.350;2023-12-14T12:44:39;1.88;;;1.77;;
4911;SDS011;2471;47.056;8.350;2023-12-14T12:47:05;1.73;;;1.63;;
4911;SDS011;2471;47.056;8.350;2023-12-14T12:49:31;1.50;;;1.40;;
4911;SDS011;2471;47.056;8.350;2023-12-14T12:51:57;1.40;;;1.30;;
4911;SDS011;2471;47.056;8.350;2023-12-14T12:54:23;1.70;;;1.60;;
4911;SDS011;2471;47.056;8.350;2023-12-14T12:56:49;2.00;;;1.80;;
4911;SDS011;2471;47.056;8.350;2023-12-14T12:59:15;8.50;;;5.45;;
4911;SDS011;2471;47.056;8.350;2023-12-14T13:01:42;1.30;;;1.20;;
4911;SDS011;2471;47.056;8.350;2023-12-14T13:04:19;1.20;;;1.20;;
4911;SDS011;2471;47.056;8.350;2023-12-14T13:06:45;1.10;;;1.00;;
4911;SDS011;2471;47.056;8.350;2023-12-14T13:09:13;1.33;;;1.23;;
4911;SDS011;2471;47.056;8.350;2023-12-14T13:11:42;3.50;;;1.38;;
4911;SDS011;2471;47.056;8.350;2023-12-14T13:14:08;1.48;;;1.38;;
4911;SDS011;2471;47.056;8.350;2023-12-14T13:16:34;1.40;;;1.30;;
4911;SDS011;2471;47.056;8.350;2023-12-14T13:19:00;2.22;;;2.03;;
4911;SDS011;2471;47.056;8.350;2023-12-14T13:21:28;13.23;;;8.47;;
4911;SDS011;2471;47.056;8.350;2023-12-14T13:23:54;2.97;;;2.70;;
4911;SDS011;2471;47.056;8.350;2023-12-14T13:26:22;1.50;;;1.40;;
4911;SDS011;2471;47.056;8.350;2023-12-14T13:28:48;2.50;;;1.20;;
4911;SDS011;2471;47.056;8.350;2023-12-14T13:31:14;2.33;;;1.23;;
4911;SDS011;2471;47.056;8.350;2023-12-14T13:33:40;2.00;;;1.37;;
4911;SDS011;2471;47.056;8.350;2023-12-14T13:36:06;1.70;;;1.60;;
4911;SDS011;2471;47.056;8.350;2023-12-14T13:38:33;9.40;;;4.80;;
4911;SDS011;2471;47.056;8.350;2023-12-14T13:41:01;14.75;;;8.65;;
4911;SDS011;2471;47.056;8.350;2023-12-14T13:43:28;2.17;;;1.90;;
4911;SDS011;2471;47.056;8.350;2023-12-14T13:45:54;2.70;;;1.40;;
4911;SDS011;2471;47.056;8.350;2023-12-14T13:48:23;1.60;;;1.30;;
4911;SDS011;2471;47.056;8.350;2023-12-14T13:50:49;2.22;;;1.70;;
4911;SDS011;2471;47.056;8.350;2023-12-14T13:53:15;1.40;;;1.20;;
4911;SDS011;2471;47.056;8.350;2023-12-14T13:55:41;1.80;;;1.70;;
4911;SDS011;2471;47.056;8.350;2023-12-14T13:58:07;1.98;;;1.88;;
4911;SDS011;2471;47.056;8.350;2023-12-14T14:00:33;4.50;;;2.30;;
4911;SDS011;2471;47.056;8.350;2023-12-14T14:03:00;3.08;;;1.50;;
4911;SDS011;2471;47.056;8.350;2023-12-14T14:05:26;4.00;;;1.60;;
4911;SDS011;2471;47.056;8.350;2023-12-14T14:07:52;1.95;;;1.38;;
4911;SDS011;2471;47.056;8.350;2023-12-14T14:10:19;1.58;;;1.48;;
4911;SDS011;2471;47.056;8.350;2023-12-14T14:12:45;1.85;;;1.40;;
4911;SDS011;2471;47.056;8.350;2023-12-14T14:15:11;1.53;;;1.43;;
4911;SDS011;2471;47.056;8.350;2023-12-14T14:17:37;2.60;;;1.70;;
4911;SDS011;2471;47.056;8.350;2023-12-14T14:20:04;2.60;;;1.90;;
4911;SDS011;2471;47.056;8.350;2023-12-14T14:22:30;1.65;;;1.55;;
4911;SDS011;2471;47.056;8.350;2023-12-14T14:24:56;1.30;;;1.20;;
4911;SDS011;2471;47.056;8.350;2023-12-14T14:27:22;1.20;;;1.20;;
4911;SDS011;2471;47.056;8.350;2023-12-14T14:29:49;2.60;;;1.70;;
4911;SDS011;2471;47.056;8.350;2023-12-14T14:32:19;2.20;;;1.40;;
4911;SDS011;2471;47.056;8.350;2023-12-14T14:34:45;1.50;;;1.40;;
4911;SDS011;2471;47.056;8.350;2023-12-14T14:37:11;2.00;;;1.58;;
4911;SDS011;2471;47.056;8.350;2023-12-14T14:39:36;2.10;;;1.90;;
4911;SDS011;2471;47.056;8.350;2023-12-14T14:42:04;2.00;;;1.90;;
4911;SDS011;2471;47.056;8.350;2023-12-14T14:44:30;1.70;;;1.60;;
4911;SDS011;2471;47.056;8.350;2023-12-14T14:46:56;1.73;;;1.63;;
4911;SDS011;2471;47.056;8.350;2023-12-14T14:49:22;1.83;;;1.73;;
4911;SDS011;2471;47.056;8.350;2023-12-14T14:51:48;2.10;;;1.90;;
4911;SDS011;2471;47.056;8.350;2023-12-14T14:54:14;1.80;;;1.70;;
4911;SDS011;2471;47.056;8.350;2023-12-14T14:56:40;5.57;;;2.30;;
4911;SDS011;2471;47.056;8.350;2023-12-14T14:59:08;1.67;;;1.57;;
4911;SDS011;2471;47.056;8.350;2023-12-14T15:01:34;2.90;;;1.58;;
4911;SDS011;2471;47.056;8.350;2023-12-14T15:04:00;1.80;;;1.70;;
4911;SDS011;2471;47.056;8.350;2023-12-14T15:06:26;1.80;;;1.70;;
4911;SDS011;2471;47.056;8.350;2023-12-14T15:08:53;3.60;;;1.90;;
4911;SDS011;2471;47.056;8.350;2023-12-14T15:11:19;2.20;;;2.00;;
4911;SDS011;2471;47.056;8.350;2023-12-14T15:13:45;1.80;;;1.70;;
4911;SDS011;2471;47.056;8.350;2023-12-14T15:16:11;2.30;;;1.90;;
4911;SDS011;2471;47.056;8.350;2023-12-14T15:18:37;1.65;;;1.55;;
4911;SDS011;2471;47.056;8.350;2023-12-14T15:21:10;2.20;;;1.30;;